Aérodrome :
LOGIN :

S'inscrire | Disclaimer

   EN    FR    IT 

 










Légende :    VFR   VFR Marginal   IFR   IFR Intensif   IFR Très Intensif
Visi : 
Plafond : 
>= 8 km
>= 3000ft
5 à 8 km
1000 à 3000 ft
1500m à 5 km
500 à 1000 ft
800 à 1500m
200 à 500 ft
< 800m
< 200 ft
Symboles :   Orages  Brouillard  Fortes neiges  Fortes précipitations  Vent > 20 kt
SIGMETs :   Divers  Orages  Givrage  Turbulence  Onde Orograph.  Cendres Volcan.






- Altitude de l'aérodrome : 324 ft
- Code IATA : KVB


ESGR - Skovde

DERNIER METAR :
  • 260150Z AUTO 02011KT 9999 BKN023/// OVC059/// M02/M03 Q0986

METARs EXPIRÉS :
  • 260120Z AUTO 02011KT 9999 SCT021/// BKN033/// OVC057/// M02/M02 Q0986
  • 260050Z AUTO 04011KT 9999 OVC021/// M01/M01 Q0986
  • 260020Z AUTO 04011KT 9999 BKN020/// M01/M01 Q0985
  • 252350Z AUTO 04011KT 9999 BKN018/// OVC025/// M00/M00 Q0985
  • 252320Z AUTO 04011KT 9999 BKN019/// BKN023/// OVC026/// M00/M00 Q0985

TAF N/A



MET'MAP, la Météo Aéronautique d'un coup d'oeil ! - Copyright ORBIFLY Décembre 2007 - Disclaimer

ORBIFLY MET'MAP TEAM :

Programmation & Développement : Alexandra Zaïnal
Sur une idée originale de : Baudouin d'Aumeries
Assistance à la programmation : Marc-Olivier Méhu
Soutien technique & logistique : Manuel Goepfert

Contact : metmap@orbifly.com




SOURCES & CREDITS :

   NOAA